sensor_id;sensor_type;location;lat;lon;timestamp;temperature;humidity
13598;DHT22;38563;54.258;12.574;2023-12-14T00:00:11;3.50;99.90
13598;DHT22;38563;54.258;12.574;2023-12-14T00:02:38;3.50;99.90
13598;DHT22;38563;54.258;12.574;2023-12-14T00:05:05;3.50;99.90
13598;DHT22;38563;54.258;12.574;2023-12-14T00:07:33;3.50;99.90
13598;DHT22;38563;54.258;12.574;2023-12-14T00:10:00;3.40;99.90
13598;DHT22;38563;54.258;12.574;2023-12-14T00:12:27;3.40;99.90
13598;DHT22;38563;54.258;12.574;2023-12-14T00:14:53;3.40;99.90
13598;DHT22;38563;54.258;12.574;2023-12-14T00:17:20;3.40;99.90
13598;DHT22;38563;54.258;12.574;2023-12-14T00:19:47;3.40;99.90
13598;DHT22;38563;54.258;12.574;2023-12-14T00:22:13;3.40;99.90
13598;DHT22;38563;54.258;12.574;2023-12-14T00:24:41;3.40;99.90
13598;DHT22;38563;54.258;12.574;2023-12-14T00:27:08;3.40;99.90
13598;DHT22;38563;54.258;12.574;2023-12-14T00:29:35;3.40;99.90
13598;DHT22;38563;54.258;12.574;2023-12-14T00:32:02;3.40;99.90
13598;DHT22;38563;54.258;12.574;2023-12-14T00:34:29;3.40;99.90
13598;DHT22;38563;54.258;12.574;2023-12-14T00:36:56;3.40;99.90
13598;DHT22;38563;54.258;12.574;2023-12-14T00:39:22;3.40;99.90
13598;DHT22;38563;54.258;12.574;2023-12-14T00:41:50;3.40;99.90
13598;DHT22;38563;54.258;12.574;2023-12-14T00:44:17;3.40;99.90
13598;DHT22;38563;54.258;12.574;2023-12-14T00:46:44;3.40;99.90
13598;DHT22;38563;54.258;12.574;2023-12-14T00:49:10;3.30;99.90
13598;DHT22;38563;54.258;12.574;2023-12-14T00:51:37;3.30;99.90
13598;DHT22;38563;54.258;12.574;2023-12-14T00:54:04;3.30;99.90
13598;DHT22;38563;54.258;12.574;2023-12-14T00:56:31;3.30;99.90
13598;DHT22;38563;54.258;12.574;2023-12-14T00:58:59;3.30;99.90
13598;DHT22;38563;54.258;12.574;2023-12-14T01:01:26;3.30;99.90
13598;DHT22;38563;54.258;12.574;2023-12-14T01:11:59;3.30;99.90
13598;DHT22;38563;54.258;12.574;2023-12-14T01:14:27;3.30;99.90
13598;DHT22;38563;54.258;12.574;2023-12-14T01:16:54;3.30;99.90
13598;DHT22;38563;54.258;12.574;2023-12-14T01:19:21;3.30;99.90
13598;DHT22;38563;54.258;12.574;2023-12-14T01:21:48;3.30;99.90
13598;DHT22;38563;54.258;12.574;2023-12-14T01:24:14;3.30;99.90
13598;DHT22;38563;54.258;12.574;2023-12-14T01:26:41;3.30;99.90
13598;DHT22;38563;54.258;12.574;2023-12-14T01:29:08;3.30;99.90
13598;DHT22;38563;54.258;12.574;2023-12-14T01:31:38;3.40;99.90
13598;DHT22;38563;54.258;12.574;2023-12-14T01:34:05;3.30;99.90
13598;DHT22;38563;54.258;12.574;2023-12-14T01:36:31;3.40;99.90
13598;DHT22;38563;54.258;12.574;2023-12-14T01:38:58;3.40;99.90
13598;DHT22;38563;54.258;12.574;2023-12-14T01:41:25;3.40;99.90
13598;DHT22;38563;54.258;12.574;2023-12-14T01:43:51;3.40;99.90
13598;DHT22;38563;54.258;12.574;2023-12-14T01:46:18;3.40;99.90
13598;DHT22;38563;54.258;12.574;2023-12-14T01:48:46;3.40;99.90
13598;DHT22;38563;54.258;12.574;2023-12-14T01:51:13;3.50;99.90
13598;DHT22;38563;54.258;12.574;2023-12-14T01:53:40;3.40;99.90
13598;DHT22;38563;54.258;12.574;2023-12-14T01:56:07;3.50;99.90
13598;DHT22;38563;54.258;12.574;2023-12-14T01:58:34;3.50;99.90
13598;DHT22;38563;54.258;12.574;2023-12-14T02:01:05;3.50;99.90
13598;DHT22;38563;54.258;12.574;2023-12-14T02:03:34;3.50;99.90
13598;DHT22;38563;54.258;12.574;2023-12-14T02:06:03;3.50;99.90
13598;DHT22;38563;54.258;12.574;2023-12-14T02:08:29;3.50;99.90
13598;DHT22;38563;54.258;12.574;2023-12-14T02:10:56;3.50;99.90
13598;DHT22;38563;54.258;12.574;2023-12-14T02:13:23;3.50;99.90
13598;DHT22;38563;54.258;12.574;2023-12-14T02:15:51;3.50;99.90
13598;DHT22;38563;54.258;12.574;2023-12-14T02:18:19;3.50;99.90
13598;DHT22;38563;54.258;12.574;2023-12-14T02:20:45;3.50;99.90
13598;DHT22;38563;54.258;12.574;2023-12-14T02:23:13;3.50;99.90
13598;DHT22;38563;54.258;12.574;2023-12-14T02:25:40;3.50;99.90
13598;DHT22;38563;54.258;12.574;2023-12-14T02:28:07;3.50;99.90
13598;DHT22;38563;54.258;12.574;2023-12-14T02:30:34;3.50;99.90
13598;DHT22;38563;54.258;12.574;2023-12-14T02:33:00;3.50;99.90
13598;DHT22;38563;54.258;12.574;2023-12-14T02:35:27;3.50;99.90
13598;DHT22;38563;54.258;12.574;2023-12-14T02:37:54;3.60;99.90
13598;DHT22;38563;54.258;12.574;2023-12-14T02:40:22;3.60;99.90
13598;DHT22;38563;54.258;12.574;2023-12-14T02:42:49;3.50;99.90
13598;DHT22;38563;54.258;12.574;2023-12-14T02:45:15;3.50;99.90
13598;DHT22;38563;54.258;12.574;2023-12-14T02:47:42;3.60;99.90
13598;DHT22;38563;54.258;12.574;2023-12-14T02:50:09;3.50;99.90
13598;DHT22;38563;54.258;12.574;2023-12-14T02:52:36;3.60;99.90
13598;DHT22;38563;54.258;12.574;2023-12-14T02:55:03;3.50;99.90
13598;DHT22;38563;54.258;12.574;2023-12-14T02:57:31;3.60;99.90
13598;DHT22;38563;54.258;12.574;2023-12-14T02:59:57;3.60;99.90
13598;DHT22;38563;54.258;12.574;2023-12-14T03:02:24;3.60;99.90
13598;DHT22;38563;54.258;12.574;2023-12-14T03:04:51;3.60;99.90
13598;DHT22;38563;54.258;12.574;2023-12-14T03:07:17;3.60;99.90
13598;DHT22;38563;54.258;12.574;2023-12-14T03:09:44;3.60;99.90
13598;DHT22;38563;54.258;12.574;2023-12-14T03:12:11;3.50;99.90
13598;DHT22;38563;54.258;12.574;2023-12-14T03:14:39;3.50;99.90
13598;DHT22;38563;54.258;12.574;2023-12-14T03:17:07;3.60;99.90
13598;DHT22;38563;54.258;12.574;2023-12-14T03:19:38;3.50;99.90
13598;DHT22;38563;54.258;12.574;2023-12-14T03:22:05;3.50;99.90
13598;DHT22;38563;54.258;12.574;2023-12-14T03:24:31;3.50;99.90
13598;DHT22;38563;54.258;12.574;2023-12-14T03:26:58;3.50;99.90
13598;DHT22;38563;54.258;12.574;2023-12-14T03:29:26;3.50;99.90
13598;DHT22;38563;54.258;12.574;2023-12-14T03:31:54;3.50;99.90
13598;DHT22;38563;54.258;12.574;2023-12-14T03:34:21;3.50;99.90
13598;DHT22;38563;54.258;12.574;2023-12-14T03:36:48;3.50;99.90
13598;DHT22;38563;54.258;12.574;2023-12-14T03:39:14;3.50;99.90
13598;DHT22;38563;54.258;12.574;2023-12-14T03:41:41;3.50;99.90
13598;DHT22;38563;54.258;12.574;2023-12-14T03:44:08;3.50;99.90
13598;DHT22;38563;54.258;12.574;2023-12-14T03:46:35;3.50;99.90
13598;DHT22;38563;54.258;12.574;2023-12-14T03:49:03;3.50;99.90
13598;DHT22;38563;54.258;12.574;2023-12-14T03:51:30;3.50;99.90
13598;DHT22;38563;54.258;12.574;2023-12-14T03:53:56;3.40;99.90
13598;DHT22;38563;54.258;12.574;2023-12-14T03:56:23;3.40;99.90
13598;DHT22;38563;54.258;12.574;2023-12-14T03:58:50;3.40;99.90
13598;DHT22;38563;54.258;12.574;2023-12-14T04:01:17;3.40;99.90
13598;DHT22;38563;54.258;12.574;2023-12-14T04:03:44;3.40;99.90
13598;DHT22;38563;54.258;12.574;2023-12-14T04:06:12;3.40;99.90
13598;DHT22;38563;54.258;12.574;2023-12-14T04:08:39;3.40;99.90
13598;DHT22;38563;54.258;12.574;2023-12-14T04:11:06;3.40;99.90
13598;DHT22;38563;54.258;12.574;2023-12-14T04:13:33;3.30;99.90
13598;DHT22;38563;54.258;12.574;2023-12-14T04:21:25;3.40;99.90
13598;DHT22;38563;54.258;12.574;2023-12-14T04:23:52;3.30;99.90
13598;DHT22;38563;54.258;12.574;2023-12-14T04:26:18;3.40;99.90
13598;DHT22;38563;54.258;12.574;2023-12-14T04:28:45;3.40;99.90
13598;DHT22;38563;54.258;12.574;2023-12-14T04:31:12;3.40;99.90
13598;DHT22;38563;54.258;12.574;2023-12-14T04:33:38;3.30;99.90
13598;DHT22;38563;54.258;12.574;2023-12-14T04:36:06;3.30;99.90
13598;DHT22;38563;54.258;12.574;2023-12-14T04:38:34;3.30;99.90
13598;DHT22;38563;54.258;12.574;2023-12-14T04:41:01;3.30;99.90
13598;DHT22;38563;54.258;12.574;2023-12-14T04:43:27;3.30;99.90
13598;DHT22;38563;54.258;12.574;2023-12-14T04:45:56;3.30;99.90
13598;DHT22;38563;54.258;12.574;2023-12-14T04:48:22;3.30;99.90
13598;DHT22;38563;54.258;12.574;2023-12-14T04:50:49;3.30;99.90
13598;DHT22;38563;54.258;12.574;2023-12-14T04:53:16;3.30;99.90
13598;DHT22;38563;54.258;12.574;2023-12-14T04:55:44;3.30;99.90
13598;DHT22;38563;54.258;12.574;2023-12-14T04:58:10;3.30;99.90
13598;DHT22;38563;54.258;12.574;2023-12-14T05:00:37;3.30;99.90
13598;DHT22;38563;54.258;12.574;2023-12-14T05:03:04;3.30;99.90
13598;DHT22;38563;54.258;12.574;2023-12-14T05:05:31;3.30;99.90
13598;DHT22;38563;54.258;12.574;2023-12-14T05:07:58;3.30;99.90
13598;DHT22;38563;54.258;12.574;2023-12-14T05:10:24;3.30;99.90
13598;DHT22;38563;54.258;12.574;2023-12-14T05:12:52;3.30;99.90
13598;DHT22;38563;54.258;12.574;2023-12-14T05:15:19;3.30;99.90
13598;DHT22;38563;54.258;12.574;2023-12-14T05:17:46;3.30;99.90
13598;DHT22;38563;54.258;12.574;2023-12-14T05:20:13;3.30;99.90
13598;DHT22;38563;54.258;12.574;2023-12-14T05:22:39;3.30;99.90
13598;DHT22;38563;54.258;12.574;2023-12-14T05:25:07;3.30;99.90
13598;DHT22;38563;54.258;12.574;2023-12-14T05:27:34;3.30;99.90
13598;DHT22;38563;54.258;12.574;2023-12-14T05:30:02;3.30;99.90
13598;DHT22;38563;54.258;12.574;2023-12-14T05:32:29;3.20;99.90
13598;DHT22;38563;54.258;12.574;2023-12-14T05:34:56;3.30;99.90
13598;DHT22;38563;54.258;12.574;2023-12-14T05:37:22;3.30;99.90
13598;DHT22;38563;54.258;12.574;2023-12-14T05:39:49;3.20;99.90
13598;DHT22;38563;54.258;12.574;2023-12-14T05:42:16;3.20;99.90
13598;DHT22;38563;54.258;12.574;2023-12-14T05:44:43;3.20;99.90
13598;DHT22;38563;54.258;12.574;2023-12-14T05:47:12;3.20;99.90
13598;DHT22;38563;54.258;12.574;2023-12-14T05:49:41;3.20;99.90
13598;DHT22;38563;54.258;12.574;2023-12-14T05:52:08;3.20;99.90
13598;DHT22;38563;54.258;12.574;2023-12-14T05:54:35;3.20;99.90
13598;DHT22;38563;54.258;12.574;2023-12-14T05:57:02;3.20;99.90
13598;DHT22;38563;54.258;12.574;2023-12-14T05:59:29;3.10;99.90
13598;DHT22;38563;54.258;12.574;2023-12-14T06:01:56;3.10;99.90
13598;DHT22;38563;54.258;12.574;2023-12-14T06:04:25;3.10;99.90
13598;DHT22;38563;54.258;12.574;2023-12-14T06:06:52;3.10;99.90
13598;DHT22;38563;54.258;12.574;2023-12-14T06:09:19;3.20;99.90
13598;DHT22;38563;54.258;12.574;2023-12-14T06:11:50;3.10;99.90
13598;DHT22;38563;54.258;12.574;2023-12-14T06:14:17;3.10;99.90
13598;DHT22;38563;54.258;12.574;2023-12-14T06:16:43;3.20;99.90
13598;DHT22;38563;54.258;12.574;2023-12-14T06:19:11;3.20;99.90
13598;DHT22;38563;54.258;12.574;2023-12-14T06:21:39;3.20;99.90
13598;DHT22;38563;54.258;12.574;2023-12-14T06:24:06;3.20;99.90
13598;DHT22;38563;54.258;12.574;2023-12-14T06:26:33;3.20;99.90
13598;DHT22;38563;54.258;12.574;2023-12-14T06:28:59;3.20;99.90
13598;DHT22;38563;54.258;12.574;2023-12-14T06:31:26;3.10;99.90
13598;DHT22;38563;54.258;12.574;2023-12-14T06:33:53;3.20;99.90
13598;DHT22;38563;54.258;12.574;2023-12-14T06:36:19;3.20;99.90
13598;DHT22;38563;54.258;12.574;2023-12-14T06:38:47;3.20;99.90
13598;DHT22;38563;54.258;12.574;2023-12-14T06:41:21;3.20;99.90
13598;DHT22;38563;54.258;12.574;2023-12-14T06:43:48;3.20;99.90
13598;DHT22;38563;54.258;12.574;2023-12-14T06:46:15;3.20;99.90
13598;DHT22;38563;54.258;12.574;2023-12-14T06:48:42;3.20;99.90
13598;DHT22;38563;54.258;12.574;2023-12-14T06:51:08;3.20;99.90
13598;DHT22;38563;54.258;12.574;2023-12-14T06:53:35;3.20;99.90
13598;DHT22;38563;54.258;12.574;2023-12-14T06:56:04;3.20;99.90
13598;DHT22;38563;54.258;12.574;2023-12-14T06:58:34;3.20;99.90
13598;DHT22;38563;54.258;12.574;2023-12-14T07:01:01;3.20;99.90
13598;DHT22;38563;54.258;12.574;2023-12-14T07:03:28;3.10;99.90
13598;DHT22;38563;54.258;12.574;2023-12-14T07:05:55;3.10;99.90
13598;DHT22;38563;54.258;12.574;2023-12-14T07:08:21;3.10;99.90
13598;DHT22;38563;54.258;12.574;2023-12-14T07:10:48;3.20;99.90
13598;DHT22;38563;54.258;12.574;2023-12-14T07:13:16;3.10;99.90
13598;DHT22;38563;54.258;12.574;2023-12-14T07:15:43;3.10;99.90
13598;DHT22;38563;54.258;12.574;2023-12-14T07:18:10;3.10;99.90
13598;DHT22;38563;54.258;12.574;2023-12-14T07:20:37;3.10;99.90
13598;DHT22;38563;54.258;12.574;2023-12-14T07:23:03;3.20;99.90
13598;DHT22;38563;54.258;12.574;2023-12-14T07:25:30;3.20;99.90
13598;DHT22;38563;54.258;12.574;2023-12-14T07:27:57;3.20;99.90
13598;DHT22;38563;54.258;12.574;2023-12-14T07:30:25;3.20;99.90
13598;DHT22;38563;54.258;12.574;2023-12-14T07:32:52;3.20;99.90
13598;DHT22;38563;54.258;12.574;2023-12-14T07:35:18;3.20;99.90
13598;DHT22;38563;54.258;12.574;2023-12-14T07:37:45;3.10;99.90
13598;DHT22;38563;54.258;12.574;2023-12-14T07:40:12;3.10;99.90
13598;DHT22;38563;54.258;12.574;2023-12-14T07:42:38;3.20;99.90
13598;DHT22;38563;54.258;12.574;2023-12-14T07:45:06;3.20;99.90
13598;DHT22;38563;54.258;12.574;2023-12-14T07:47:36;3.20;99.90
13598;DHT22;38563;54.258;12.574;2023-12-14T07:50:03;3.20;99.90
13598;DHT22;38563;54.258;12.574;2023-12-14T07:52:30;3.20;99.90
13598;DHT22;38563;54.258;12.574;2023-12-14T07:54:57;3.20;99.90
13598;DHT22;38563;54.258;12.574;2023-12-14T07:57:24;3.20;99.90
13598;DHT22;38563;54.258;12.574;2023-12-14T07:59:50;3.20;99.90
13598;DHT22;38563;54.258;12.574;2023-12-14T08:02:17;3.10;99.90
13598;DHT22;38563;54.258;12.574;2023-12-14T08:04:45;3.20;99.90
13598;DHT22;38563;54.258;12.574;2023-12-14T08:07:12;3.20;99.90
13598;DHT22;38563;54.258;12.574;2023-12-14T08:09:38;3.20;99.90
13598;DHT22;38563;54.258;12.574;2023-12-14T08:12:06;3.20;99.90
13598;DHT22;38563;54.258;12.574;2023-12-14T08:14:33;3.20;99.90
13598;DHT22;38563;54.258;12.574;2023-12-14T08:17:00;3.20;99.90
13598;DHT22;38563;54.258;12.574;2023-12-14T08:19:27;3.20;99.90
13598;DHT22;38563;54.258;12.574;2023-12-14T08:21:56;3.20;99.90
13598;DHT22;38563;54.258;12.574;2023-12-14T08:24:22;3.20;99.90
13598;DHT22;38563;54.258;12.574;2023-12-14T08:26:51;3.20;99.90
13598;DHT22;38563;54.258;12.574;2023-12-14T08:29:23;3.10;99.90
13598;DHT22;38563;54.258;12.574;2023-12-14T08:31:50;3.10;99.90
13598;DHT22;38563;54.258;12.574;2023-12-14T08:34:17;3.10;99.90
13598;DHT22;38563;54.258;12.574;2023-12-14T08:36:43;3.10;99.90
13598;DHT22;38563;54.258;12.574;2023-12-14T08:39:12;3.10;99.90
13598;DHT22;38563;54.258;12.574;2023-12-14T08:41:38;3.10;99.90
13598;DHT22;38563;54.258;12.574;2023-12-14T08:44:06;3.10;99.90
13598;DHT22;38563;54.258;12.574;2023-12-14T08:46:38;3.10;99.90
13598;DHT22;38563;54.258;12.574;2023-12-14T08:49:05;3.10;99.90
13598;DHT22;38563;54.258;12.574;2023-12-14T08:51:32;3.10;99.90
13598;DHT22;38563;54.258;12.574;2023-12-14T08:53:58;3.10;99.90
13598;DHT22;38563;54.258;12.574;2023-12-14T08:56:26;3.00;99.90
13598;DHT22;38563;54.258;12.574;2023-12-14T08:58:53;3.10;99.90
13598;DHT22;38563;54.258;12.574;2023-12-14T09:01:20;3.00;99.90
13598;DHT22;38563;54.258;12.574;2023-12-14T09:03:47;3.00;99.90
13598;DHT22;38563;54.258;12.574;2023-12-14T09:06:16;3.00;99.90
13598;DHT22;38563;54.258;12.574;2023-12-14T09:08:43;3.10;99.90
13598;DHT22;38563;54.258;12.574;2023-12-14T09:11:10;3.10;99.90
13598;DHT22;38563;54.258;12.574;2023-12-14T09:13:38;3.10;99.90
13598;DHT22;38563;54.258;12.574;2023-12-14T09:16:06;3.10;99.90
13598;DHT22;38563;54.258;12.574;2023-12-14T09:18:32;3.10;99.90
13598;DHT22;38563;54.258;12.574;2023-12-14T09:20:59;3.10;99.90
13598;DHT22;38563;54.258;12.574;2023-12-14T09:23:26;3.10;99.90
13598;DHT22;38563;54.258;12.574;2023-12-14T09:25:52;3.20;99.90
13598;DHT22;38563;54.258;12.574;2023-12-14T09:28:21;3.10;99.90
13598;DHT22;38563;54.258;12.574;2023-12-14T09:30:49;3.20;99.90
13598;DHT22;38563;54.258;12.574;2023-12-14T09:33:16;3.20;99.90
13598;DHT22;38563;54.258;12.574;2023-12-14T09:35:43;3.20;99.90
13598;DHT22;38563;54.258;12.574;2023-12-14T09:38:10;3.10;99.90
13598;DHT22;38563;54.258;12.574;2023-12-14T09:40:39;3.20;99.90
13598;DHT22;38563;54.258;12.574;2023-12-14T09:43:06;3.20;99.90
13598;DHT22;38563;54.258;12.574;2023-12-14T09:45:34;3.20;99.90
13598;DHT22;38563;54.258;12.574;2023-12-14T09:48:04;3.20;99.90
13598;DHT22;38563;54.258;12.574;2023-12-14T09:50:32;3.20;99.90
13598;DHT22;38563;54.258;12.574;2023-12-14T09:53:00;3.20;99.90
13598;DHT22;38563;54.258;12.574;2023-12-14T09:55:27;3.20;99.90
13598;DHT22;38563;54.258;12.574;2023-12-14T09:57:53;3.20;99.90
13598;DHT22;38563;54.258;12.574;2023-12-14T10:00:33;3.20;99.90
13598;DHT22;38563;54.258;12.574;2023-12-14T10:03:17;3.10;99.90
13598;DHT22;38563;54.258;12.574;2023-12-14T10:05:44;3.10;99.90
13598;DHT22;38563;54.258;12.574;2023-12-14T10:08:11;3.10;99.90
13598;DHT22;38563;54.258;12.574;2023-12-14T10:10:38;3.10;99.90
13598;DHT22;38563;54.258;12.574;2023-12-14T10:13:04;3.10;99.90
13598;DHT22;38563;54.258;12.574;2023-12-14T10:15:40;3.20;99.90
13598;DHT22;38563;54.258;12.574;2023-12-14T10:18:07;3.10;99.90
13598;DHT22;38563;54.258;12.574;2023-12-14T10:20:35;3.20;99.90
13598;DHT22;38563;54.258;12.574;2023-12-14T10:34:27;3.20;99.90
13598;DHT22;38563;54.258;12.574;2023-12-14T10:36:55;3.20;99.90
13598;DHT22;38563;54.258;12.574;2023-12-14T10:39:22;3.10;99.90
13598;DHT22;38563;54.258;12.574;2023-12-14T10:41:49;3.10;99.90
13598;DHT22;38563;54.258;12.574;2023-12-14T10:44:18;3.10;99.90
13598;DHT22;38563;54.258;12.574;2023-12-14T10:46:47;3.10;99.90
13598;DHT22;38563;54.258;12.574;2023-12-14T10:49:15;3.10;99.90
13598;DHT22;38563;54.258;12.574;2023-12-14T10:51:42;3.10;99.90
13598;DHT22;38563;54.258;12.574;2023-12-14T10:54:11;3.20;99.90
13598;DHT22;38563;54.258;12.574;2023-12-14T10:56:37;3.20;99.90
13598;DHT22;38563;54.258;12.574;2023-12-14T10:59:04;3.20;99.90
13598;DHT22;38563;54.258;12.574;2023-12-14T11:01:32;3.20;99.90
13598;DHT22;38563;54.258;12.574;2023-12-14T11:04:00;3.20;99.90
13598;DHT22;38563;54.258;12.574;2023-12-14T11:06:32;3.20;99.90
13598;DHT22;38563;54.258;12.574;2023-12-14T11:09:00;3.20;99.90
13598;DHT22;38563;54.258;12.574;2023-12-14T11:11:39;3.20;99.90
13598;DHT22;38563;54.258;12.574;2023-12-14T11:14:07;3.30;99.90
13598;DHT22;38563;54.258;12.574;2023-12-14T11:43:06;3.20;99.90
13598;DHT22;38563;54.258;12.574;2023-12-14T11:45:34;3.20;99.90
13598;DHT22;38563;54.258;12.574;2023-12-14T11:48:01;3.20;99.90
13598;DHT22;38563;54.258;12.574;2023-12-14T11:50:31;3.20;99.90
13598;DHT22;38563;54.258;12.574;2023-12-14T11:52:59;3.20;99.90
13598;DHT22;38563;54.258;12.574;2023-12-14T11:55:26;3.20;99.90
13598;DHT22;38563;54.258;12.574;2023-12-14T11:57:53;3.20;99.90
13598;DHT22;38563;54.258;12.574;2023-12-14T12:00:25;3.20;99.90
13598;DHT22;38563;54.258;12.574;2023-12-14T12:02:52;3.20;99.90
13598;DHT22;38563;54.258;12.574;2023-12-14T12:05:38;3.20;99.90
13598;DHT22;38563;54.258;12.574;2023-12-14T12:08:05;3.20;99.90
13598;DHT22;38563;54.258;12.574;2023-12-14T12:10:33;3.20;99.90
13598;DHT22;38563;54.258;12.574;2023-12-14T12:13:02;3.20;99.90
13598;DHT22;38563;54.258;12.574;2023-12-14T12:15:31;3.10;99.90
13598;DHT22;38563;54.258;12.574;2023-12-14T12:18:03;3.10;99.90
13598;DHT22;38563;54.258;12.574;2023-12-14T12:20:30;3.10;99.90
13598;DHT22;38563;54.258;12.574;2023-12-14T12:22:57;3.10;99.90
13598;DHT22;38563;54.258;12.574;2023-12-14T12:25:24;3.00;99.90
13598;DHT22;38563;54.258;12.574;2023-12-14T12:27:52;3.00;99.90
13598;DHT22;38563;54.258;12.574;2023-12-14T12:30:19;2.90;99.90
13598;DHT22;38563;54.258;12.574;2023-12-14T12:32:47;2.90;99.90
13598;DHT22;38563;54.258;12.574;2023-12-14T12:35:15;2.90;99.90
13598;DHT22;38563;54.258;12.574;2023-12-14T12:37:42;2.90;99.90
13598;DHT22;38563;54.258;12.574;2023-12-14T12:40:10;2.90;99.90
13598;DHT22;38563;54.258;12.574;2023-12-14T12:42:37;3.00;99.90
13598;DHT22;38563;54.258;12.574;2023-12-14T12:45:05;2.90;99.90
13598;DHT22;38563;54.258;12.574;2023-12-14T12:47:32;3.00;99.90
13598;DHT22;38563;54.258;12.574;2023-12-14T12:50:00;2.90;99.90
13598;DHT22;38563;54.258;12.574;2023-12-14T12:52:28;3.00;99.90
13598;DHT22;38563;54.258;12.574;2023-12-14T12:54:54;3.00;99.90
13598;DHT22;38563;54.258;12.574;2023-12-14T12:57:21;2.80;99.90
13598;DHT22;38563;54.258;12.574;2023-12-14T12:59:48;2.80;99.90
13598;DHT22;38563;54.258;12.574;2023-12-14T13:02:14;2.80;99.90
13598;DHT22;38563;54.258;12.574;2023-12-14T13:04:41;2.60;99.90
13598;DHT22;38563;54.258;12.574;2023-12-14T13:07:09;2.60;99.90
13598;DHT22;38563;54.258;12.574;2023-12-14T13:09:37;2.60;99.90
13598;DHT22;38563;54.258;12.574;2023-12-14T13:12:04;2.50;99.90
13598;DHT22;38563;54.258;12.574;2023-12-14T13:14:31;2.50;99.90
13598;DHT22;38563;54.258;12.574;2023-12-14T13:16:58;2.50;99.90
13598;DHT22;38563;54.258;12.574;2023-12-14T13:19:25;2.40;99.90
13598;DHT22;38563;54.258;12.574;2023-12-14T13:21:53;2.40;99.90
13598;DHT22;38563;54.258;12.574;2023-12-14T13:24:21;2.40;99.90
13598;DHT22;38563;54.258;12.574;2023-12-14T13:26:47;2.40;99.90
13598;DHT22;38563;54.258;12.574;2023-12-14T13:29:14;2.40;99.90
13598;DHT22;38563;54.258;12.574;2023-12-14T13:31:41;2.40;99.90
13598;DHT22;38563;54.258;12.574;2023-12-14T13:34:07;2.40;99.90
13598;DHT22;38563;54.258;12.574;2023-12-14T13:36:34;2.40;99.90
13598;DHT22;38563;54.258;12.574;2023-12-14T13:39:01;2.40;99.90
13598;DHT22;38563;54.258;12.574;2023-12-14T13:41:29;2.40;99.90
13598;DHT22;38563;54.258;12.574;2023-12-14T13:43:59;2.40;99.90
13598;DHT22;38563;54.258;12.574;2023-12-14T13:46:26;2.40;99.90
13598;DHT22;38563;54.258;12.574;2023-12-14T13:48:52;2.40;99.90
13598;DHT22;38563;54.258;12.574;2023-12-14T13:51:19;2.40;99.90
13598;DHT22;38563;54.258;12.574;2023-12-14T13:53:46;2.40;99.90
13598;DHT22;38563;54.258;12.574;2023-12-14T13:56:12;2.40;99.90
13598;DHT22;38563;54.258;12.574;2023-12-14T13:58:40;2.40;99.90
13598;DHT22;38563;54.258;12.574;2023-12-14T14:01:07;2.40;99.90
13598;DHT22;38563;54.258;12.574;2023-12-14T14:03:34;2.40;99.90
13598;DHT22;38563;54.258;12.574;2023-12-14T14:06:00;2.40;99.90
13598;DHT22;38563;54.258;12.574;2023-12-14T14:08:28;2.40;99.90
13598;DHT22;38563;54.258;12.574;2023-12-14T14:10:56;2.40;99.90
13598;DHT22;38563;54.258;12.574;2023-12-14T14:13:23;2.40;99.90
13598;DHT22;38563;54.258;12.574;2023-12-14T14:15:51;2.40;99.90
13598;DHT22;38563;54.258;12.574;2023-12-14T14:18:18;2.40;99.90
13598;DHT22;38563;54.258;12.574;2023-12-14T14:20:45;2.40;99.90
13598;DHT22;38563;54.258;12.574;2023-12-14T14:23:12;2.40;99.90
13598;DHT22;38563;54.258;12.574;2023-12-14T14:25:38;2.40;99.90
13598;DHT22;38563;54.258;12.574;2023-12-14T14:28:06;2.40;99.90
13598;DHT22;38563;54.258;12.574;2023-12-14T14:30:33;2.40;99.90
13598;DHT22;38563;54.258;12.574;2023-12-14T14:33:01;2.40;99.90
13598;DHT22;38563;54.258;12.574;2023-12-14T14:35:28;2.40;99.90
13598;DHT22;38563;54.258;12.574;2023-12-14T14:37:55;2.40;99.90
13598;DHT22;38563;54.258;12.574;2023-12-14T14:40:21;2.40;99.90
13598;DHT22;38563;54.258;12.574;2023-12-14T14:42:48;2.40;99.90
13598;DHT22;38563;54.258;12.574;2023-12-14T14:45:15;2.40;99.90
13598;DHT22;38563;54.258;12.574;2023-12-14T14:47:42;2.40;99.90
13598;DHT22;38563;54.258;12.574;2023-12-14T14:50:10;2.40;99.90
13598;DHT22;38563;54.258;12.574;2023-12-14T14:52:37;2.40;99.90
13598;DHT22;38563;54.258;12.574;2023-12-14T14:55:04;2.40;99.90
13598;DHT22;38563;54.258;12.574;2023-12-14T14:57:31;2.40;99.90
13598;DHT22;38563;54.258;12.574;2023-12-14T14:59:59;2.40;99.90
13598;DHT22;38563;54.258;12.574;2023-12-14T15:02:26;2.40;99.90
13598;DHT22;38563;54.258;12.574;2023-12-14T15:04:52;2.40;99.90
13598;DHT22;38563;54.258;12.574;2023-12-14T15:07:20;2.40;99.90
13598;DHT22;38563;54.258;12.574;2023-12-14T15:09:47;2.40;99.90
13598;DHT22;38563;54.258;12.574;2023-12-14T15:12:14;2.40;99.90
13598;DHT22;38563;54.258;12.574;2023-12-14T15:14:40;2.40;99.90
13598;DHT22;38563;54.258;12.574;2023-12-14T15:17:09;2.40;99.90
13598;DHT22;38563;54.258;12.574;2023-12-14T15:19:36;2.40;99.90
13598;DHT22;38563;54.258;12.574;2023-12-14T15:22:02;2.40;99.90
13598;DHT22;38563;54.258;12.574;2023-12-14T15:24:30;2.40;99.90
13598;DHT22;38563;54.258;12.574;2023-12-14T15:26:57;2.40;99.90
13598;DHT22;38563;54.258;12.574;2023-12-14T15:29:24;2.40;99.90
13598;DHT22;38563;54.258;12.574;2023-12-14T15:31:51;2.40;99.90
13598;DHT22;38563;54.258;12.574;2023-12-14T15:34:18;2.40;99.90
13598;DHT22;38563;54.258;12.574;2023-12-14T15:36:45;2.40;99.90
13598;DHT22;38563;54.258;12.574;2023-12-14T15:39:12;2.40;99.90
13598;DHT22;38563;54.258;12.574;2023-12-14T15:41:40;2.40;99.90
13598;DHT22;38563;54.258;12.574;2023-12-14T15:44:06;2.40;99.90
13598;DHT22;38563;54.258;12.574;2023-12-14T15:46:33;2.40;99.90
13598;DHT22;38563;54.258;12.574;2023-12-14T15:49:00;2.50;99.90
13598;DHT22;38563;54.258;12.574;2023-12-14T15:51:27;2.40;99.90
13598;DHT22;38563;54.258;12.574;2023-12-14T15:53:54;2.40;99.90
13598;DHT22;38563;54.258;12.574;2023-12-14T15:56:22;2.40;99.90
13598;DHT22;38563;54.258;12.574;2023-12-14T15:58:51;2.50;99.90
13598;DHT22;38563;54.258;12.574;2023-12-14T16:01:18;2.40;99.90
13598;DHT22;38563;54.258;12.574;2023-12-14T16:03:47;2.40;99.90
13598;DHT22;38563;54.258;12.574;2023-12-14T16:06:14;2.40;99.90
13598;DHT22;38563;54.258;12.574;2023-12-14T16:08:41;2.40;99.90
13598;DHT22;38563;54.258;12.574;2023-12-14T16:11:08;2.40;99.90
13598;DHT22;38563;54.258;12.574;2023-12-14T16:13:36;2.40;99.90
13598;DHT22;38563;54.258;12.574;2023-12-14T16:16:05;2.50;99.90
13598;DHT22;38563;54.258;12.574;2023-12-14T16:45:32;2.40;99.90
13598;DHT22;38563;54.258;12.574;2023-12-14T16:47:59;2.40;99.90